Hlavní strana
METAR-TAF:

METAR-TAF

Letiště :

Orsk, Rusko

zeměpisná šířka: 51-04-18N, zeměpisná délka: 058-35-48E, výška: 277 m

Aktuální stav počasí

Zpráva byla vytvořena před 47 minutami, v 23:00 UTC
Západojihozápadní vítr 25 kt
Teplota 2°C
Vlhkost vzduchu 93%
Tlak 1010 hPa
Viditelnost 10 km a více
Zataženo ve výšce 2600 ft

METAR: UWOR 212300Z 24013MPS 9999 OVC026 02/01 Q1010 R25/CLRD65 NOSIG RMK QFE734/0979

Čas: 04:47 (23:47 UTC)

Předpověď počasí

Zpráva byla vytvořena před 1 hodinou a 2 minutami, v 22:45 UTC
Předpověď platná od 22 v 00 UTC do 22 v 09 UTC
Jihozápadní vítr 19 kt s nárazy do 29 kt
Viditelnost: 6000 m
Oblačno až skoro zataženo ve výšce 1600 ft
Dočasný
od 22 v 00 UTC do 22 v 09 UTC
Jihojihozápadní vítr 23 kt s nárazy do 43 kt
Oblačno až skoro zataženo ve výšce 1000 ft
slabý déšť

TAF: UWOR 212245Z 2200/2209 23010G15MPS 6000 BKN016 TX13/2209Z TN03/2200Z TEMPO 2200/2209 21012G22MPS -RA BKN010

Stav a předpovědi počasí z více než 4 000 letišť (zprávy METAR a TAF).

Červené a žluté tečky na mapě představují dostupné meteorologické stanice.

Když kurzor umístíte na tečku, zobrazí se název stanice.

Pak kliknutím zobrazíte stav a předpověď počasí.

Chcete-li změnit mapu, kliknutím na zelené tlačítko se znaménkem +mapu přiblížíte, kliknutím na zelené tlačítko se znaménkem – mapu oddálíte a kliknutím na zelené šipky přejdete na sousední mapy.


METAR-TAF: